createdAt,value
2022-10-12T00:01:01.957Z,12.98
2022-10-12T00:03:30.418Z,10.63
2022-10-12T00:06:02.890Z,14.77
2022-10-12T00:08:33.275Z,11.27
2022-10-12T00:11:01.725Z,11.55
2022-10-12T00:13:30.160Z,10.55
2022-10-12T00:15:58.553Z,9.45
2022-10-12T00:18:26.941Z,12.65
2022-10-12T00:21:02.465Z,12.07
2022-10-12T00:23:31.588Z,13.90
2022-10-12T00:26:06.611Z,10.55
2022-10-12T00:28:35.774Z,10.50
2022-10-12T00:31:04.576Z,9.80
2022-10-12T00:33:32.978Z,7.68
2022-10-12T00:36:01.365Z,10.20
2022-10-12T00:38:29.768Z,7.97
2022-10-12T00:40:58.147Z,11.82
2022-10-12T00:43:34.289Z,7.78
2022-10-12T00:46:03.548Z,7.18
2022-10-12T00:48:32.175Z,9.18
2022-10-12T00:51:03.068Z,7.63
2022-10-12T00:53:33.334Z,7.70
2022-10-12T00:56:03.059Z,9.07
2022-10-12T00:58:32.885Z,6.75
2022-10-12T01:01:03.187Z,10.38
2022-10-12T01:03:31.785Z,9.73
2022-10-12T01:06:00.437Z,7.60
2022-10-12T01:08:30.248Z,8.73
2022-10-12T01:10:59.687Z,6.47
2022-10-12T01:13:28.495Z,7.95
2022-10-12T01:16:00.381Z,6.65
2022-10-12T01:18:31.200Z,7.97
2022-10-12T01:21:03.724Z,7.85
2022-10-12T01:23:50.848Z,6.38
2022-10-12T01:26:31.521Z,7.93
2022-10-12T01:29:05.084Z,7.60
2022-10-12T01:31:37.982Z,8.65
2022-10-12T01:34:11.193Z,7.05
2022-10-12T01:36:44.340Z,7.78
2022-10-12T01:39:15.187Z,7.00
2022-10-12T01:41:46.251Z,11.88
2022-10-12T01:44:14.739Z,7.93
2022-10-12T01:46:46.146Z,6.70
2022-10-12T01:49:15.941Z,7.43
2022-10-12T01:51:54.938Z,10.75
2022-10-12T01:54:28.623Z,10.32
2022-10-12T01:56:59.462Z,9.23
2022-10-12T01:59:33.599Z,5.72
2022-10-12T02:02:06.704Z,7.45
2022-10-12T02:04:38.769Z,5.60
2022-10-12T02:07:10.155Z,11.10
2022-10-12T02:09:39.123Z,7.70
2022-10-12T02:12:10.004Z,6.95
2022-10-12T02:14:40.504Z,6.28
2022-10-12T02:17:11.769Z,7.45
2022-10-12T02:19:42.091Z,8.90
2022-10-12T02:22:11.243Z,8.02
2022-10-12T02:24:41.016Z,5.43
2022-10-12T02:27:10.638Z,10.70
2022-10-12T02:29:40.294Z,6.30
2022-10-12T02:32:12.540Z,6.25
2022-10-12T02:34:45.084Z,10.18
2022-10-12T02:37:19.595Z,6.20
2022-10-12T02:39:50.696Z,8.32
2022-10-12T02:42:20.837Z,6.78
2022-10-12T02:44:49.716Z,5.97
2022-10-12T02:47:20.530Z,6.20
2022-10-12T02:49:49.368Z,8.65
2022-10-12T02:52:22.409Z,6.30
2022-10-12T02:54:50.784Z,5.97
2022-10-12T02:57:19.720Z,7.53
2022-10-12T02:59:48.115Z,6.32
2022-10-12T03:02:16.529Z,5.32
2022-10-12T03:04:46.270Z,8.65
2022-10-12T03:07:14.697Z,7.43
2022-10-12T03:09:43.062Z,6.05
2022-10-12T03:12:11.461Z,9.40
2022-10-12T03:14:40.132Z,6.32
2022-10-12T03:17:08.560Z,7.38
2022-10-12T03:19:38.461Z,4.93
2022-10-12T03:22:08.276Z,8.13
2022-10-12T03:24:36.659Z,5.63
2022-10-12T03:27:05.204Z,5.60
2022-10-12T03:29:33.615Z,10.50
2022-10-12T03:32:02.009Z,9.10
2022-10-12T03:34:30.439Z,7.38
2022-10-12T03:36:58.835Z,5.90
2022-10-12T03:39:28.607Z,5.53
2022-10-12T03:41:57.012Z,7.57
2022-10-12T03:44:25.389Z,7.38
2022-10-12T03:46:53.855Z,6.05
2022-10-12T03:49:22.411Z,7.75
2022-10-12T03:51:50.845Z,9.70
2022-10-12T03:54:19.244Z,7.80
2022-10-12T03:56:49.076Z,7.37
2022-10-12T03:59:17.432Z,5.93
2022-10-12T04:01:45.893Z,9.37
2022-10-12T04:04:14.495Z,5.47
2022-10-12T04:06:42.894Z,6.25
2022-10-12T04:09:11.269Z,9.05
2022-10-12T04:11:39.663Z,9.30
2022-10-12T04:14:09.406Z,7.65
2022-10-12T04:16:37.915Z,10.23
2022-10-12T04:19:06.313Z,9.75
2022-10-12T04:21:34.709Z,8.80
2022-10-12T04:24:03.123Z,10.82
2022-10-12T04:26:31.557Z,6.00
2022-10-12T04:28:59.954Z,10.57
2022-10-12T04:31:29.797Z,8.85
2022-10-12T04:33:58.991Z,8.70
2022-10-12T04:36:27.888Z,9.10
2022-10-12T04:39:00.822Z,12.20
2022-10-12T04:41:29.674Z,14.27
2022-10-12T04:43:58.090Z,11.18
2022-10-12T04:46:26.573Z,7.13
2022-10-12T04:48:56.355Z,13.40
2022-10-12T04:51:24.804Z,22.25
2022-10-12T04:53:53.276Z,16.02
2022-10-12T04:56:21.716Z,11.07
2022-10-12T04:58:50.094Z,11.20
2022-10-12T05:01:18.550Z,11.98
2022-10-12T05:03:47.143Z,13.07
2022-10-12T05:06:16.919Z,10.82
2022-10-12T05:08:45.331Z,11.48
2022-10-12T05:11:13.762Z,18.02
2022-10-12T05:13:42.160Z,13.18
2022-10-12T05:16:10.590Z,12.45
2022-10-12T05:18:38.954Z,18.77
2022-10-12T05:21:07.695Z,12.20
2022-10-12T05:23:37.490Z,9.18
2022-10-12T05:26:05.954Z,13.25
2022-10-12T05:28:39.765Z,13.32
2022-10-12T05:31:09.505Z,8.47
2022-10-12T05:33:37.971Z,11.07
2022-10-12T05:36:06.572Z,12.25
2022-10-12T05:38:34.965Z,7.35
2022-10-12T05:41:04.905Z,6.50
2022-10-12T05:43:33.355Z,11.68
2022-10-12T05:46:01.831Z,10.97
2022-10-12T05:48:30.244Z,13.10
2022-10-12T05:50:58.765Z,7.57
2022-10-12T05:53:27.592Z,8.35
2022-10-12T05:55:56.521Z,11.73
2022-10-12T05:58:27.145Z,10.45
2022-10-12T06:00:55.594Z,10.63
2022-10-12T06:03:26.262Z,13.23
2022-10-12T06:05:55.018Z,11.70
2022-10-12T06:08:23.423Z,11.70
2022-10-12T06:10:52.866Z,8.10
2022-10-12T06:13:21.259Z,8.10
2022-10-12T06:15:51.198Z,10.30
2022-10-12T06:18:20.415Z,8.52
2022-10-12T06:20:49.659Z,9.55
2022-10-12T06:23:18.116Z,8.98
2022-10-12T06:25:47.766Z,9.68
2022-10-12T06:28:16.471Z,11.45
2022-10-12T06:30:45.188Z,9.40
2022-10-12T06:33:15.007Z,13.45
2022-10-12T06:35:43.413Z,9.80
2022-10-12T06:38:11.868Z,10.70
2022-10-12T06:40:40.279Z,9.27
2022-10-12T06:43:08.739Z,8.80
2022-10-12T06:45:37.200Z,12.23
2022-10-12T06:48:06.109Z,10.43
2022-10-12T06:50:35.898Z,12.80
2022-10-12T06:53:04.464Z,10.82
2022-10-12T06:55:33.152Z,8.85
2022-10-12T06:58:01.562Z,10.85
2022-10-12T07:00:29.997Z,11.27
2022-10-12T07:02:58.506Z,12.85
2022-10-12T07:05:27.243Z,9.18
2022-10-12T07:07:57.056Z,8.57
2022-10-12T07:10:26.079Z,9.25
2022-10-12T07:12:54.578Z,9.70
2022-10-12T07:15:23.076Z,11.35
2022-10-12T07:17:51.774Z,13.18
2022-10-12T07:20:20.276Z,10.88
2022-10-12T07:22:48.805Z,14.77
2022-10-12T07:25:19.116Z,9.85
2022-10-12T07:27:49.203Z,11.88
2022-10-12T07:30:17.807Z,11.40
2022-10-12T07:32:47.114Z,10.98
2022-10-12T07:35:15.569Z,17.45
2022-10-12T07:37:44.100Z,9.52
2022-10-12T07:40:12.548Z,8.25
2022-10-12T07:43:05.420Z,10.63
2022-10-12T07:45:31.810Z,7.78
2022-10-12T07:48:00.239Z,9.68
2022-10-12T07:50:28.876Z,9.90
2022-10-12T07:52:57.576Z,13.18
2022-10-12T07:55:26.035Z,12.65
2022-10-12T07:57:55.823Z,11.77
2022-10-12T08:00:24.223Z,9.68
2022-10-12T08:02:53.030Z,18.33
2022-10-12T08:05:22.488Z,16.60
2022-10-12T08:07:51.608Z,18.13
2022-10-12T08:10:20.897Z,10.75
2022-10-12T08:12:52.211Z,14.38
2022-10-12T08:15:24.986Z,7.25
2022-10-12T08:17:53.417Z,9.32
2022-10-12T08:20:21.826Z,11.15
2022-10-12T08:22:50.225Z,13.70
2022-10-12T08:25:18.801Z,8.15
2022-10-12T08:27:47.181Z,12.57
2022-10-12T08:30:15.838Z,9.55
2022-10-12T08:32:45.617Z,9.38
2022-10-12T08:35:13.982Z,10.23
2022-10-12T08:37:42.456Z,8.25
2022-10-12T08:40:12.365Z,7.47
2022-10-12T08:42:44.915Z,10.05
2022-10-12T08:45:30.080Z,9.25
2022-10-12T08:48:02.671Z,8.07
2022-10-12T08:50:33.524Z,9.20
2022-10-12T08:53:05.144Z,6.03
2022-10-12T08:55:38.255Z,9.57
2022-10-12T08:58:13.740Z,8.98
2022-10-12T09:00:42.221Z,5.88
2022-10-12T09:03:16.396Z,10.68
2022-10-12T09:05:47.098Z,8.63
2022-10-12T09:08:20.949Z,7.85
2022-10-12T09:10:53.342Z,6.68
2022-10-12T09:13:29.025Z,8.05
2022-10-12T09:15:59.368Z,7.95
2022-10-12T09:18:35.945Z,9.20
2022-10-12T09:21:08.982Z,13.00
2022-10-12T09:23:40.338Z,8.75
2022-10-12T09:26:13.410Z,9.85
2022-10-12T09:28:43.958Z,8.48
2022-10-12T09:31:21.342Z,11.18
2022-10-12T09:33:53.673Z,8.35
2022-10-12T09:36:23.137Z,9.60
2022-10-12T09:38:51.838Z,8.32
2022-10-12T09:41:22.539Z,7.82
2022-10-12T09:43:51.926Z,8.68
2022-10-12T09:46:22.995Z,9.73
2022-10-12T09:49:01.939Z,7.03
2022-10-12T09:51:32.348Z,7.68
2022-10-12T09:54:03.513Z,6.50
2022-10-12T09:56:38.531Z,8.45
2022-10-12T09:59:08.525Z,8.50
2022-10-12T10:01:37.395Z,6.90
2022-10-12T10:04:11.182Z,7.28
2022-10-12T10:06:40.295Z,7.60
2022-10-12T10:09:09.202Z,5.15
2022-10-12T10:11:37.618Z,6.78
2022-10-12T10:14:06.028Z,10.43
2022-10-12T10:16:34.478Z,9.48
2022-10-12T10:19:03.240Z,6.65
2022-10-12T10:21:35.019Z,9.45
2022-10-12T10:24:04.077Z,6.80
2022-10-12T10:26:51.996Z,5.60
2022-10-12T10:29:28.614Z,6.20
2022-10-12T10:32:11.950Z,7.82
2022-10-12T10:34:40.698Z,5.00
2022-10-12T10:37:15.685Z,7.13
2022-10-12T10:39:48.149Z,6.95
2022-10-12T10:42:20.040Z,7.43
2022-10-12T10:44:49.027Z,6.18
2022-10-12T10:47:17.603Z,4.65
2022-10-12T10:49:49.609Z,5.32
2022-10-12T10:52:24.511Z,5.22
2022-10-12T10:55:08.745Z,7.90
2022-10-12T10:57:38.771Z,8.90
2022-10-12T11:00:33.812Z,5.95
2022-10-12T11:02:57.808Z,6.55
2022-10-12T11:05:29.079Z,8.90
2022-10-12T11:07:59.950Z,9.95
2022-10-12T11:10:30.152Z,7.22
2022-10-12T11:13:04.112Z,5.63
2022-10-12T11:15:35.833Z,7.28
2022-10-12T11:18:09.097Z,7.40
2022-10-12T11:20:46.870Z,6.18
2022-10-12T11:23:22.724Z,10.30
2022-10-12T11:25:57.847Z,8.25
2022-10-12T11:28:27.343Z,7.50
2022-10-12T11:30:55.889Z,6.85
2022-10-12T11:33:25.484Z,6.43
2022-10-12T11:35:55.003Z,6.45
2022-10-12T11:38:27.759Z,5.32
2022-10-12T11:41:19.139Z,10.02
2022-10-12T11:43:47.906Z,6.90
2022-10-12T11:46:17.575Z,8.43
2022-10-12T11:48:48.952Z,10.57
2022-10-12T11:51:17.331Z,6.72
2022-10-12T11:53:50.308Z,8.27
2022-10-12T11:56:22.608Z,8.98
2022-10-12T11:59:00.936Z,10.18
2022-10-12T12:01:36.292Z,8.25
2022-10-12T12:04:36.447Z,9.80
2022-10-12T12:07:00.566Z,8.85
2022-10-12T12:09:34.865Z,10.57
2022-10-12T12:12:17.774Z,9.95
2022-10-12T12:14:48.464Z,8.38
2022-10-12T12:17:24.349Z,10.32
2022-10-12T12:19:56.007Z,8.32
2022-10-12T12:22:26.472Z,7.93
2022-10-12T12:25:12.858Z,7.00
2022-10-12T12:27:43.762Z,6.93
2022-10-12T12:30:45.256Z,8.60
2022-10-12T12:33:29.075Z,7.10
2022-10-12T12:35:58.911Z,7.72
2022-10-12T12:38:32.489Z,8.07
2022-10-12T12:41:03.045Z,10.45
2022-10-12T12:43:52.355Z,8.20
2022-10-12T12:46:21.759Z,8.18
2022-10-12T12:49:07.542Z,5.00
2022-10-12T12:51:44.279Z,6.75
2022-10-12T12:54:17.843Z,8.32
2022-10-12T12:56:53.704Z,9.77
2022-10-12T12:59:36.082Z,7.22
2022-10-12T13:02:14.590Z,7.35
2022-10-12T13:04:51.436Z,9.27
2022-10-12T13:07:29.004Z,6.95
2022-10-12T13:10:04.254Z,6.80
2022-10-12T13:12:45.018Z,6.88
2022-10-12T13:15:27.337Z,14.50
2022-10-12T13:18:14.550Z,8.55
2022-10-12T13:20:52.092Z,9.10
2022-10-12T13:23:22.540Z,7.18
2022-10-12T13:25:56.968Z,8.88
2022-10-12T13:28:27.514Z,8.60
2022-10-12T13:31:01.239Z,8.68
2022-10-12T13:33:32.612Z,7.47
2022-10-12T13:36:03.905Z,8.23
2022-10-12T13:38:32.469Z,7.95
2022-10-12T13:41:09.129Z,7.88
2022-10-12T13:43:41.886Z,10.77
2022-10-12T13:46:12.875Z,8.73
2022-10-12T13:48:58.851Z,8.05
2022-10-12T13:51:29.944Z,13.15
2022-10-12T13:53:58.606Z,8.30
2022-10-12T13:56:28.175Z,8.18
2022-10-12T13:58:58.770Z,9.90
2022-10-12T14:01:28.788Z,6.75
2022-10-12T14:04:04.560Z,8.68
2022-10-12T14:06:33.985Z,9.30
2022-10-12T14:09:07.013Z,5.65
2022-10-12T14:11:35.672Z,6.70
2022-10-12T14:14:04.534Z,6.45
2022-10-12T14:16:34.318Z,7.10
2022-10-12T14:19:17.605Z,13.57
2022-10-12T14:21:47.763Z,7.95
2022-10-12T14:24:17.756Z,5.63
2022-10-12T14:26:49.945Z,6.75
2022-10-12T14:29:29.774Z,8.18
2022-10-12T14:32:00.522Z,8.77
2022-10-12T14:34:36.148Z,8.02
2022-10-12T14:37:05.239Z,4.30
2022-10-12T14:39:33.980Z,8.07
2022-10-12T14:42:03.428Z,9.18
2022-10-12T14:44:32.052Z,8.05
2022-10-12T14:47:03.171Z,7.85
2022-10-12T14:49:36.718Z,10.35
2022-10-12T14:52:05.266Z,9.38
2022-10-12T14:54:33.718Z,8.30
2022-10-12T14:57:03.616Z,7.03
2022-10-12T14:59:31.988Z,7.50
2022-10-12T15:02:01.773Z,12.73
2022-10-12T15:04:30.227Z,11.25
2022-10-12T15:06:58.651Z,10.07
2022-10-12T15:09:27.084Z,8.07
2022-10-12T15:11:55.559Z,7.63
2022-10-12T15:14:23.947Z,8.18
2022-10-12T15:16:52.340Z,6.47
2022-10-12T15:19:22.152Z,9.00
2022-10-12T15:21:50.590Z,8.98
2022-10-12T15:24:19.005Z,6.95
2022-10-12T15:26:47.467Z,8.75
2022-10-12T15:29:15.969Z,8.63
2022-10-12T15:31:47.770Z,7.03
2022-10-12T15:34:19.410Z,6.55
2022-10-12T15:36:49.673Z,8.30
2022-10-12T15:39:18.089Z,12.27
2022-10-12T15:41:46.528Z,8.65
2022-10-12T15:44:15.396Z,11.27
2022-10-12T15:46:44.675Z,9.95
2022-10-12T15:49:15.163Z,11.98
2022-10-12T15:51:49.433Z,9.15
2022-10-12T15:54:17.834Z,9.75
2022-10-12T15:56:46.288Z,9.85
2022-10-12T15:59:14.751Z,9.38
2022-10-12T16:01:44.816Z,9.05
2022-10-12T16:04:15.648Z,7.95
2022-10-12T16:06:44.228Z,11.07
2022-10-12T16:09:14.019Z,10.80
2022-10-12T16:11:42.434Z,11.57
2022-10-12T16:14:11.635Z,8.95
2022-10-12T16:16:40.052Z,9.35
2022-10-12T16:19:08.528Z,9.48
2022-10-12T16:21:36.952Z,8.65
2022-10-12T16:24:05.420Z,8.88
2022-10-12T16:26:35.202Z,11.00
2022-10-12T16:29:03.588Z,9.63
2022-10-12T16:31:32.008Z,9.68
2022-10-12T16:34:00.438Z,12.32
2022-10-12T16:36:28.905Z,22.17
2022-10-12T16:38:58.482Z,9.90
2022-10-12T16:41:30.335Z,10.23
2022-10-12T16:44:04.409Z,9.15
2022-10-12T16:46:32.840Z,9.85
2022-10-12T16:49:01.217Z,8.52
2022-10-12T16:51:29.643Z,8.02
2022-10-12T16:53:58.452Z,8.93
2022-10-12T16:56:26.899Z,11.70
2022-10-12T16:58:55.321Z,10.40
2022-10-12T17:01:25.168Z,10.77
2022-10-12T17:03:55.118Z,10.68
2022-10-12T17:06:23.598Z,10.00
2022-10-12T17:08:52.180Z,11.15
2022-10-12T17:11:21.294Z,7.60
2022-10-12T17:13:49.664Z,9.43
2022-10-12T17:16:36.147Z,7.63
2022-10-12T17:19:05.955Z,14.27
2022-10-12T17:21:35.039Z,8.85
2022-10-12T17:24:03.838Z,9.77
2022-10-12T17:26:32.296Z,7.55
2022-10-12T17:29:00.711Z,7.93
2022-10-12T17:31:29.128Z,6.80
2022-10-12T17:33:57.498Z,11.35
2022-10-12T17:36:28.547Z,14.82
2022-10-12T17:38:57.092Z,11.45
2022-10-12T17:41:25.531Z,10.15
2022-10-12T17:43:53.959Z,12.20
2022-10-12T17:46:22.860Z,14.80
2022-10-12T17:48:51.731Z,13.60
2022-10-12T17:51:20.154Z,16.38
2022-10-12T17:53:49.919Z,11.27
2022-10-12T17:56:18.575Z,11.07
2022-10-12T17:58:46.973Z,14.25
2022-10-12T18:01:16.443Z,15.43
2022-10-12T18:03:47.173Z,11.48
2022-10-12T18:06:16.883Z,11.82
2022-10-12T18:08:45.270Z,8.80
2022-10-12T18:11:15.424Z,9.25
2022-10-12T18:13:46.478Z,9.07
2022-10-12T18:16:14.934Z,10.68
2022-10-12T18:18:43.319Z,9.07
2022-10-12T18:21:14.056Z,8.88
2022-10-12T18:23:42.465Z,9.98
2022-10-12T18:26:12.805Z,10.90
2022-10-12T18:28:42.925Z,7.75
2022-10-12T18:31:16.978Z,10.40
2022-10-12T18:33:45.353Z,9.43
2022-10-12T18:36:14.480Z,10.70
2022-10-12T18:38:43.163Z,12.20
2022-10-12T18:41:12.868Z,12.02
2022-10-12T18:43:42.682Z,13.68
2022-10-12T18:46:11.763Z,9.90
2022-10-12T18:48:40.509Z,9.10
2022-10-12T18:51:09.801Z,11.30
2022-10-12T18:53:38.236Z,12.43
2022-10-12T18:56:07.113Z,8.80
2022-10-12T18:58:35.612Z,11.70
2022-10-12T19:01:09.577Z,8.65
2022-10-12T19:03:38.144Z,8.15
2022-10-12T19:06:07.841Z,8.85
2022-10-12T19:08:36.592Z,11.77
2022-10-12T19:11:08.997Z,11.73
2022-10-12T19:13:37.680Z,9.00
2022-10-12T19:16:09.386Z,9.90
2022-10-12T19:18:38.002Z,9.40
2022-10-12T19:21:07.089Z,12.77
2022-10-12T19:23:35.500Z,10.50
2022-10-12T19:26:04.997Z,11.90
2022-10-12T19:28:33.476Z,13.38
2022-10-12T19:31:02.226Z,11.30
2022-10-12T19:33:32.004Z,13.60
2022-10-12T19:36:00.424Z,11.95
2022-10-12T19:38:28.830Z,11.02
2022-10-12T19:40:57.235Z,15.10
2022-10-12T19:43:25.618Z,11.23
2022-10-12T19:45:54.067Z,14.27
2022-10-12T19:48:22.568Z,13.00
2022-10-12T19:51:00.430Z,10.45
2022-10-12T19:53:28.949Z,10.23
2022-10-12T19:56:00.567Z,12.90
2022-10-12T19:58:28.968Z,9.85
2022-10-12T20:01:02.186Z,9.30
2022-10-12T20:03:30.701Z,14.27
2022-10-12T20:06:00.553Z,10.77
2022-10-12T20:08:29.046Z,10.80
2022-10-12T20:10:57.470Z,13.23
2022-10-12T20:13:25.863Z,11.18
2022-10-12T20:15:54.388Z,11.13
2022-10-12T20:18:22.853Z,10.95
2022-10-12T20:20:51.316Z,14.63
2022-10-12T20:23:21.623Z,12.82
2022-10-12T20:25:51.122Z,15.80
2022-10-12T20:28:20.679Z,11.40
2022-10-12T20:30:49.621Z,12.38
2022-10-12T20:33:18.214Z,16.38
2022-10-12T20:35:50.102Z,14.05
2022-10-12T20:38:18.791Z,11.90
2022-10-12T20:40:48.558Z,14.85
2022-10-12T20:43:17.276Z,12.50
2022-10-12T20:45:45.823Z,10.95
2022-10-12T20:48:14.208Z,11.25
2022-10-12T20:50:42.614Z,12.73
2022-10-12T20:53:10.980Z,11.55
2022-10-12T20:55:40.894Z,13.43
2022-10-12T20:58:11.807Z,10.23
2022-10-12T21:00:40.385Z,12.32
2022-10-12T21:03:08.816Z,12.93
2022-10-12T21:05:37.296Z,15.07
2022-10-12T21:08:05.742Z,13.02
2022-10-12T21:10:37.979Z,12.50
2022-10-12T21:13:08.450Z,13.75
2022-10-12T21:15:38.348Z,14.75
2022-10-12T21:18:06.749Z,15.65
2022-10-12T21:20:35.176Z,14.45
2022-10-12T21:23:03.542Z,15.50
2022-10-12T21:25:31.949Z,16.90
2022-10-12T21:28:00.350Z,12.48
2022-10-12T21:30:28.809Z,14.82
2022-10-12T21:32:58.588Z,13.55
2022-10-12T21:35:27.008Z,13.45
2022-10-12T21:37:55.681Z,14.05
2022-10-12T21:40:24.192Z,13.38
2022-10-12T21:42:52.572Z,13.93
2022-10-12T21:45:21.026Z,13.27
2022-10-12T21:47:51.365Z,16.50
2022-10-12T21:50:21.266Z,15.35
2022-10-12T21:52:50.304Z,16.50
2022-10-12T21:55:18.839Z,12.90
2022-10-12T21:57:47.225Z,15.25
2022-10-12T22:00:16.248Z,14.27
2022-10-12T22:02:45.006Z,14.00
2022-10-12T22:05:13.390Z,15.07
2022-10-12T22:07:44.414Z,12.38
2022-10-12T22:10:13.150Z,15.55
2022-10-12T22:12:41.533Z,15.35
2022-10-12T22:15:10.418Z,13.80
2022-10-12T22:17:38.785Z,15.27
2022-10-12T22:20:07.644Z,13.05
2022-10-12T22:22:36.011Z,14.05
2022-10-12T22:25:05.962Z,14.02
2022-10-12T22:27:34.350Z,16.20
2022-10-12T22:30:02.855Z,14.45
2022-10-12T22:32:31.239Z,13.98
2022-10-12T22:34:59.870Z,16.42
2022-10-12T22:37:28.269Z,14.48
2022-10-12T22:39:56.654Z,16.55
2022-10-12T22:42:26.428Z,14.40
2022-10-12T22:44:54.802Z,14.00
2022-10-12T22:47:25.650Z,14.60
2022-10-12T22:49:54.030Z,14.18
2022-10-12T22:52:22.470Z,19.50
2022-10-12T22:54:50.933Z,18.50
2022-10-12T22:57:19.356Z,18.00
2022-10-12T22:59:49.114Z,17.85
2022-10-12T23:02:17.760Z,16.88
2022-10-12T23:04:46.338Z,16.20
2022-10-12T23:07:15.150Z,18.30
2022-10-12T23:09:44.384Z,18.08
2022-10-12T23:12:12.778Z,17.17
2022-10-12T23:14:41.179Z,16.50
2022-10-12T23:17:10.926Z,19.30
2022-10-12T23:19:39.285Z,15.27
2022-10-12T23:22:07.679Z,16.63
2022-10-12T23:24:36.079Z,17.60
2022-10-12T23:27:04.472Z,16.70
2022-10-12T23:29:32.914Z,16.23
2022-10-12T23:32:01.318Z,16.45
2022-10-12T23:34:31.242Z,16.55
2022-10-12T23:37:00.009Z,15.60
2022-10-12T23:39:30.527Z,15.02
2022-10-12T23:41:59.016Z,21.15
2022-10-12T23:44:27.460Z,16.25
2022-10-12T23:46:55.872Z,18.92
2022-10-12T23:49:24.472Z,20.63
2022-10-12T23:51:54.222Z,20.38
2022-10-12T23:54:22.635Z,17.08
2022-10-12T23:56:51.037Z,16.13
2022-10-12T23:59:19.400Z,15.88
